Palessa — V2IA7 — position and weather

sailwx.info

Track history (hours):
 
Tides and Currents Weather Stations Pressure Air Temp Water Temp Dewpoint Dewpoint Depression Visibility Wind Speed Wind Dir Waves Ship Positions

Palessa

Last reported at 2014-Apr-27 17:26 UTC. Time now 2014-Jul-23 08:08 UTC.
Position N 01°12' E 103°33'.
Warning: this ship's position is months out of date.

Length 118 m; draft 4.9 m.

Type: Cargo ship. MMSI: 304255000.

Date/timePositionNaut miles runAvg speedWind from/ knotsBaromVisibWave heightAir tempDewpointWater temp
2014-Apr-27 17:26N 01°12' E 103°33'1012.0
2014-Apr-27 16:33N 01°09' E 103°43'18 1.0
2014-Apr-26 23:23N 01°16' E 103°59'7 8.3
2014-Apr-26 22:33N 01°15' E 103°53'0 0.1
2014-Apr-26 21:29N 01°15' E 103°53'0 0.1
2014-Apr-26 20:26N 01°15' E 103°53'0 0.0
2014-Apr-26 18:29N 01°15' E 103°53'0 0.0
2014-Apr-26 16:32N 01°15' E 103°53'0 0.0
2014-Apr-26 14:14N 01°15' E 103°53'0 0.0
2014-Apr-26 13:32N 01°15' E 103°53'0 0.0
2014-Apr-26 12:32N 01°15' E 103°53'0 0.0
2014-Apr-26 11:29N 01°15' E 103°53'0 0.0
2014-Apr-26 10:23N 01°15' E 103°53'0 0.1
2014-Apr-26 09:14N 01°15' E 103°52'2 2.5
2014-Apr-26 08:33N 01°14' E 103°52'8 8.4
2014-Apr-26 07:34N 01°17' E 103°44'2 1.8
2014-Apr-26 06:31N 01°18' E 103°43'0 0.0
2014-Apr-26 05:34N 01°18' E 103°43'0 0.0
2014-Apr-26 04:34N 01°18' E 103°43'0 0.0
2014-Apr-26 03:33N 01°18' E 103°43'0 0.0
2014-Apr-26 02:34N 01°18' E 103°43'0 0.0
2014-Apr-26 01:30N 01°18' E 103°43'0 0.0
2014-Apr-26 00:30N 01°18' E 103°43'0 0.0
2014-Apr-25 23:33N 01°18' E 103°43'0 0.0
2014-Apr-25 22:34N 01°18' E 103°43'0 0.0
2014-Apr-25 21:33N 01°18' E 103°43'0 0.0
2014-Apr-25 20:34N 01°18' E 103°43'0 0.0
2014-Apr-25 19:30N 01°18' E 103°43'0 0.0
2014-Apr-25 18:27N 01°18' E 103°43'0 0.0
2014-Apr-25 17:33N 01°18' E 103°43'0 0.0
2014-Apr-25 16:33N 01°18' E 103°43'0 0.0
2014-Apr-25 15:34N 01°18' E 103°43'0 0.0
2014-Apr-25 14:33N 01°18' E 103°43'0 0.0
2014-Apr-25 13:33N 01°18' E 103°43'0 0.0
2014-Apr-25 12:33N 01°18' E 103°43'0 0.0
2014-Apr-25 11:33N 01°18' E 103°43'0 0.0
2014-Apr-25 10:24N 01°18' E 103°43'0 0.0
2014-Apr-25 09:33N 01°18' E 103°43'0 0.0
2014-Apr-25 08:33N 01°18' E 103°43'0 0.0
2014-Apr-25 07:33N 01°18' E 103°43'0 0.0
2014-Apr-25 06:33N 01°18' E 103°43'0 0.0
2014-Apr-25 05:33N 01°18' E 103°43'0 0.0
2014-Apr-25 04:31N 01°18' E 103°43'0 0.0
2014-Apr-25 03:33N 01°18' E 103°43'0 0.0
2014-Apr-25 02:33N 01°18' E 103°43'0 0.0
2014-Apr-25 01:33N 01°18' E 103°43'0 0.0
2014-Apr-25 00:33N 01°18' E 103°43'0 0.0
2014-Apr-24 23:33N 01°18' E 103°43'0 0.0
2014-Apr-24 22:21N 01°18' E 103°43'0 0.0
2014-Apr-24 21:33N 01°18' E 103°43'0 0.0
2014-Apr-24 20:33N 01°18' E 103°43'0 0.0
2014-Apr-24 19:31N 01°18' E 103°43'0 0.0
2014-Apr-24 18:33N 01°18' E 103°43'0 0.0
2014-Apr-24 17:33N 01°18' E 103°43'0 0.0
2014-Apr-24 16:33N 01°18' E 103°43'0 0.0
2014-Apr-24 15:33N 01°18' E 103°43'0 0.0
2014-Apr-24 14:33N 01°18' E 103°43'0 0.0
2014-Apr-24 13:31N 01°18' E 103°43'0 0.0
2014-Apr-24 12:33N 01°18' E 103°43'0 0.0
2014-Apr-24 11:33N 01°18' E 103°43'0 0.0
2014-Apr-24 10:33N 01°18' E 103°43'0 0.0
2014-Apr-24 09:33N 01°18' E 103°43'0 0.0
2014-Apr-24 08:33N 01°18' E 103°43'0 0.0
2014-Apr-24 07:31N 01°18' E 103°43'0 0.0
2014-Apr-24 06:33N 01°18' E 103°43'0 0.0
2014-Apr-24 05:33N 01°18' E 103°43'0 0.0
2014-Apr-24 04:33N 01°18' E 103°43'0 0.0
2014-Apr-24 03:33N 01°18' E 103°43'0 0.0
2014-Apr-24 02:33N 01°18' E 103°43'0 0.0
2014-Apr-24 01:33N 01°18' E 103°43'0 0.0
2014-Apr-24 00:33N 01°18' E 103°43'0 0.0
2014-Apr-23 23:33N 01°18' E 103°43'0 0.0
2014-Apr-23 22:31N 01°18' E 103°43'0 0.0
2014-Apr-23 21:33N 01°18' E 103°43'0 0.0
2014-Apr-23 20:31N 01°18' E 103°43'0 0.0
2014-Apr-23 19:33N 01°18' E 103°43'0 0.0
2014-Apr-23 18:33N 01°18' E 103°43'0 0.0
2014-Apr-23 17:31N 01°18' E 103°43'1 0.8
2014-Apr-23 16:34N 01°18' E 103°44'3 3.3
2014-Apr-23 15:33N 01°14' E 103°43'5 4.4
2014-Apr-23 14:28N 01°14' E 103°39'0 0.0
2014-Apr-23 13:31N 01°14' E 103°39'0 0.0
2014-Apr-23 12:31N 01°14' E 103°39'1 1.2
2014-Apr-23 11:33N 01°14' E 103°40'4 4.2
2014-Apr-23 10:33N 01°10' E 103°42'4 3.6
2014-Apr-23 09:33N 01°09' E 103°45'7 6.7
2014-Apr-23 08:33N 01°12' E 103°51'  
Track history (hours):
 
Tides and Currents Weather Stations Pressure Air Temp Water Temp Dewpoint Dewpoint Depression Visibility Wind Speed Wind Dir Waves Ship Positions

Palessa

Last reported at 2014-Apr-27 17:26 UTC. Time now 2014-Jul-23 08:08 UTC.
Position N 01°12' E 103°33'.
Warning: this ship's position is months out of date.

Length 118 m; draft 4.9 m.

Type: Cargo ship. MMSI: 304255000.

Date/timePositionNaut miles runAvg speedWind from/ knotsBaromVisibWave heightAir tempDewpointWater temp
2014-Apr-27 17:26N 01°12' E 103°33'1012.0
2014-Apr-27 16:33N 01°09' E 103°43'18 1.0
2014-Apr-26 23:23N 01°16' E 103°59'7 8.3
2014-Apr-26 22:33N 01°15' E 103°53'0 0.1
2014-Apr-26 21:29N 01°15' E 103°53'0 0.1
2014-Apr-26 20:26N 01°15' E 103°53'0 0.0
2014-Apr-26 18:29N 01°15' E 103°53'0 0.0
2014-Apr-26 16:32N 01°15' E 103°53'0 0.0
2014-Apr-26 14:14N 01°15' E 103°53'0 0.0
2014-Apr-26 13:32N 01°15' E 103°53'0 0.0
2014-Apr-26 12:32N 01°15' E 103°53'0 0.0
2014-Apr-26 11:29N 01°15' E 103°53'0 0.0
2014-Apr-26 10:23N 01°15' E 103°53'0 0.1
2014-Apr-26 09:14N 01°15' E 103°52'2 2.5
2014-Apr-26 08:33N 01°14' E 103°52'8 8.4
2014-Apr-26 07:34N 01°17' E 103°44'2 1.8
2014-Apr-26 06:31N 01°18' E 103°43'0 0.0
2014-Apr-26 05:34N 01°18' E 103°43'0 0.0
2014-Apr-26 04:34N 01°18' E 103°43'0 0.0
2014-Apr-26 03:33N 01°18' E 103°43'0 0.0
2014-Apr-26 02:34N 01°18' E 103°43'0 0.0
2014-Apr-26 01:30N 01°18' E 103°43'0 0.0
2014-Apr-26 00:30N 01°18' E 103°43'0 0.0
2014-Apr-25 23:33N 01°18' E 103°43'0 0.0
2014-Apr-25 22:34N 01°18' E 103°43'0 0.0
2014-Apr-25 21:33N 01°18' E 103°43'0 0.0
2014-Apr-25 20:34N 01°18' E 103°43'0 0.0
2014-Apr-25 19:30N 01°18' E 103°43'0 0.0
2014-Apr-25 18:27N 01°18' E 103°43'0 0.0
2014-Apr-25 17:33N 01°18' E 103°43'0 0.0
2014-Apr-25 16:33N 01°18' E 103°43'0 0.0
2014-Apr-25 15:34N 01°18' E 103°43'0 0.0
2014-Apr-25 14:33N 01°18' E 103°43'0 0.0
2014-Apr-25 13:33N 01°18' E 103°43'0 0.0
2014-Apr-25 12:33N 01°18' E 103°43'0 0.0
2014-Apr-25 11:33N 01°18' E 103°43'0 0.0
2014-Apr-25 10:24N 01°18' E 103°43'0 0.0
2014-Apr-25 09:33N 01°18' E 103°43'0 0.0
2014-Apr-25 08:33N 01°18' E 103°43'0 0.0
2014-Apr-25 07:33N 01°18' E 103°43'0 0.0
2014-Apr-25 06:33N 01°18' E 103°43'0 0.0
2014-Apr-25 05:33N 01°18' E 103°43'0 0.0
2014-Apr-25 04:31N 01°18' E 103°43'0 0.0
2014-Apr-25 03:33N 01°18' E 103°43'0 0.0
2014-Apr-25 02:33N 01°18' E 103°43'0 0.0
2014-Apr-25 01:33N 01°18' E 103°43'0 0.0
2014-Apr-25 00:33N 01°18' E 103°43'0 0.0
2014-Apr-24 23:33N 01°18' E 103°43'0 0.0
2014-Apr-24 22:21N 01°18' E 103°43'0 0.0
2014-Apr-24 21:33N 01°18' E 103°43'0 0.0
2014-Apr-24 20:33N 01°18' E 103°43'0 0.0
2014-Apr-24 19:31N 01°18' E 103°43'0 0.0
2014-Apr-24 18:33N 01°18' E 103°43'0 0.0
2014-Apr-24 17:33N 01°18' E 103°43'0 0.0
2014-Apr-24 16:33N 01°18' E 103°43'0 0.0
2014-Apr-24 15:33N 01°18' E 103°43'0 0.0
2014-Apr-24 14:33N 01°18' E 103°43'0 0.0
2014-Apr-24 13:31N 01°18' E 103°43'0 0.0
2014-Apr-24 12:33N 01°18' E 103°43'0 0.0
2014-Apr-24 11:33N 01°18' E 103°43'0 0.0
2014-Apr-24 10:33N 01°18' E 103°43'0 0.0
2014-Apr-24 09:33N 01°18' E 103°43'0 0.0
2014-Apr-24 08:33N 01°18' E 103°43'0 0.0
2014-Apr-24 07:31N 01°18' E 103°43'0 0.0
2014-Apr-24 06:33N 01°18' E 103°43'0 0.0
2014-Apr-24 05:33N 01°18' E 103°43'0 0.0
2014-Apr-24 04:33N 01°18' E 103°43'0 0.0
2014-Apr-24 03:33N 01°18' E 103°43'0 0.0
2014-Apr-24 02:33N 01°18' E 103°43'0 0.0
2014-Apr-24 01:33N 01°18' E 103°43'0 0.0
2014-Apr-24 00:33N 01°18' E 103°43'0 0.0
2014-Apr-23 23:33N 01°18' E 103°43'0 0.0
2014-Apr-23 22:31N 01°18' E 103°43'0 0.0
2014-Apr-23 21:33N 01°18' E 103°43'0 0.0
2014-Apr-23 20:31N 01°18' E 103°43'0 0.0
2014-Apr-23 19:33N 01°18' E 103°43'0 0.0
2014-Apr-23 18:33N 01°18' E 103°43'0 0.0
2014-Apr-23 17:31N 01°18' E 103°43'1 0.8
2014-Apr-23 16:34N 01°18' E 103°44'3 3.3
2014-Apr-23 15:33N 01°14' E 103°43'5 4.4
2014-Apr-23 14:28N 01°14' E 103°39'0 0.0
2014-Apr-23 13:31N 01°14' E 103°39'0 0.0
2014-Apr-23 12:31N 01°14' E 103°39'1 1.2
2014-Apr-23 11:33N 01°14' E 103°40'4 4.2
2014-Apr-23 10:33N 01°10' E 103°42'4 3.6
2014-Apr-23 09:33N 01°09' E 103°45'7 6.7
2014-Apr-23 08:33N 01°12' E 103°51'  

Dump ship's entire track history